Time;durP1;ratioP1;P1;durP2;ratioP2;P2;SDS_P1;SDS_P2;PMS_P1;PMS_P2;Temp;Humidity;BMP_temperature;BMP_pressure;BME280_temperature;BME280_humidity;BME280_pressure;Samples;Min_cycle;Max_cycle;Signal;HPM_P1;HPM_P2
2023/01/04 00:01:06;;;;;;;8.98;2.90;;;;;;;;;;5033483;28;20041;-70
2023/01/04 00:03:33;;;;;;;11.73;4.40;;;;;;;;;;5043369;28;20065;-70
2023/01/04 00:06:00;;;;;;;9.23;2.63;;;;;;;;;;5037287;28;20045;-71
2023/01/04 00:08:26;;;;;;;5.82;2.42;;;;;;;;;;5049789;28;20040;-71
2023/01/04 00:10:52;;;;;;;8.70;3.15;;;;;;;;;;5040526;28;20048;-71
2023/01/04 00:13:18;;;;;;;6.82;2.25;;;;;;;;;;5042137;28;20458;-71
2023/01/04 00:15:44;;;;;;;9.63;3.00;;;;;;;;;;5050299;28;20037;-71
2023/01/04 00:18:10;;;;;;;8.55;3.22;;;;;;;;;;5039804;28;20581;-71
2023/01/04 00:20:36;;;;;;;6.40;2.40;;;;;;;;;;5037370;28;20047;-71
2023/01/04 00:23:02;;;;;;;7.22;3.00;;;;;;;;;;5045838;28;20735;-71
2023/01/04 00:25:28;;;;;;;6.32;2.63;;;;;;;;;;5045325;28;20068;-71
2023/01/04 00:27:54;;;;;;;8.00;3.20;;;;;;;;;;5040050;28;20037;-71
2023/01/04 00:30:20;;;;;;;6.18;2.30;;;;;;;;;;5039315;28;20037;-71
2023/01/04 00:33:04;;;;;;;8.85;3.40;;;;;;;;;;5042111;28;20070;-70
2023/01/04 00:35:30;;;;;;;9.85;4.82;;;;;;;;;;5038548;28;20041;-71
2023/01/04 00:37:56;;;;;;;4.82;2.33;;;;;;;;;;5039572;28;20650;-70
2023/01/04 00:40:22;;;;;;;9.82;2.90;;;;;;;;;;5037664;28;20037;-71
2023/01/04 00:42:48;;;;;;;7.22;2.22;;;;;;;;;;5046880;28;20041;-71
2023/01/04 00:45:14;;;;;;;8.15;2.75;;;;;;;;;;5046934;28;20032;-70
2023/01/04 00:47:40;;;;;;;8.93;3.20;;;;;;;;;;5048289;28;20044;-70
2023/01/04 00:50:07;;;;;;;9.48;3.35;;;;;;;;;;5025406;28;20068;-69
2023/01/04 00:52:33;;;;;;;9.38;3.22;;;;;;;;;;5030305;28;20045;-69
2023/01/04 00:54:59;;;;;;;7.20;2.58;;;;;;;;;;5045245;28;20044;-70
2023/01/04 00:57:25;;;;;;;10.65;3.20;;;;;;;;;;5042302;28;20410;-69
2023/01/04 00:59:51;;;;;;;9.38;2.67;;;;;;;;;;5047774;28;20036;-70
2023/01/04 01:02:17;;;;;;;5.43;2.70;;;;;;;;;;5042896;28;20105;-70
2023/01/04 01:04:43;;;;;;;6.55;2.88;;;;;;;;;;5044398;28;20053;-70
2023/01/04 01:07:09;;;;;;;5.68;2.63;;;;;;;;;;5035858;28;20403;-70
2023/01/04 01:09:35;;;;;;;6.95;3.00;;;;;;;;;;5048184;28;20040;-69
2023/01/04 01:12:01;;;;;;;8.52;2.90;;;;;;;;;;5042030;28;20120;-69
2023/01/04 01:14:27;;;;;;;7.45;3.08;;;;;;;;;;5042124;28;20041;-69
2023/01/04 01:16:53;;;;;;;7.20;2.65;;;;;;;;;;5024668;28;20045;-70
2023/01/04 01:19:19;;;;;;;8.00;2.40;;;;;;;;;;5041648;28;20568;-69
2023/01/04 01:21:45;;;;;;;2.95;2.25;;;;;;;;;;5049516;28;20051;-69
2023/01/04 01:24:15;;;;;;;6.47;2.67;;;;;;;;;;5045991;28;20120;-69
2023/01/04 01:26:41;;;;;;;4.03;2.38;;;;;;;;;;5038783;28;20041;-70
2023/01/04 01:29:07;;;;;;;6.93;3.10;;;;;;;;;;5033073;28;20376;-70
2023/01/04 01:31:33;;;;;;;16.67;8.65;;;;;;;;;;5033212;28;20076;-70
2023/01/04 01:34:00;;;;;;;8.68;2.78;;;;;;;;;;5014070;28;20049;-71
2023/01/04 01:36:26;;;;;;;5.95;2.80;;;;;;;;;;5036350;28;20414;-71
2023/01/04 01:38:53;;;;;;;15.40;6.72;;;;;;;;;;5046736;28;20067;-71
2023/01/04 01:41:26;;;;;;;8.50;2.45;;;;;;;;;;5049478;28;20128;-71
2023/01/04 01:43:54;;;;;;;8.50;3.30;;;;;;;;;;5048709;28;20711;-71
2023/01/04 01:46:33;;;;;;;6.38;2.78;;;;;;;;;;5046573;28;20041;-71
2023/01/04 01:49:02;;;;;;;5.68;2.45;;;;;;;;;;5046105;28;20037;-70
2023/01/04 01:51:28;;;;;;;6.45;2.15;;;;;;;;;;5043464;28;20041;-70
2023/01/04 01:54:03;;;;;;;7.28;3.00;;;;;;;;;;5049329;28;20077;-71
2023/01/04 01:56:31;;;;;;;6.07;2.03;;;;;;;;;;5024667;28;20129;-69
2023/01/04 01:58:58;;;;;;;5.97;2.67;;;;;;;;;;5051663;28;20041;-69
2023/01/04 02:01:24;;;;;;;6.43;2.45;;;;;;;;;;5058639;22;20267;-62
2023/01/04 02:03:50;;;;;;;10.90;2.55;;;;;;;;;;5029614;28;20048;-63
2023/01/04 02:06:23;;;;;;;6.68;2.47;;;;;;;;;;5032604;28;20045;-62
2023/01/04 02:08:50;;;;;;;7.93;2.75;;;;;;;;;;5032100;28;20045;-63
2023/01/04 02:11:16;;;;;;;6.65;3.05;;;;;;;;;;5029007;28;20122;-63
2023/01/04 02:16:33;;;;;;;7.00;2.78;;;;;;;;;;4996698;28;20046;-62
2023/01/04 02:19:11;;;;;;;7.22;3.00;;;;;;;;;;5010184;28;20068;-63
2023/01/04 02:22:16;;;;;;;7.70;2.35;;;;;;;;;;5020449;28;20042;-63
2023/01/04 02:24:51;;;;;;;3.97;2.30;;;;;;;;;;4942727;29;20044;-63
2023/01/04 02:27:19;;;;;;;5.88;2.22;;;;;;;;;;4936734;29;20123;-63
2023/01/04 02:30:00;;;;;;;7.40;2.72;;;;;;;;;;4975128;28;20075;-63
2023/01/04 02:32:32;;;;;;;4.22;2.45;;;;;;;;;;4997980;28;20046;-63
2023/01/04 02:34:58;;;;;;;4.50;2.30;;;;;;;;;;5014259;28;20073;-63
2023/01/04 02:37:38;;;;;;;3.80;2.00;;;;;;;;;;5013008;28;20100;-63
2023/01/04 02:40:11;;;;;;;4.35;2.08;;;;;;;;;;5021044;28;20069;-63
2023/01/04 02:45:36;;;;;;;2.78;1.80;;;;;;;;;;5007779;28;20419;-63
2023/01/04 02:50:50;;;;;;;4.20;2.10;;;;;;;;;;5020263;28;20094;-63
2023/01/04 02:53:21;;;;;;;3.38;1.70;;;;;;;;;;5013932;28;20045;-64
2023/01/04 02:56:05;;;;;;;2.13;1.90;;;;;;;;;;5010508;28;20036;-63
2023/01/04 02:58:50;;;;;;;4.18;2.25;;;;;;;;;;5015093;28;20125;-63
2023/01/04 03:07:13;;;;;;;4.40;1.58;;;;;;;;;;5010655;28;20069;-63
2023/01/04 03:09:41;;;;;;;3.47;1.83;;;;;;;;;;5020354;28;20049;-63
2023/01/04 03:12:31;;;;;;;2.88;1.45;;;;;;;;;;5007409;28;20049;-63
2023/01/04 03:15:00;;;;;;;3.80;1.30;;;;;;;;;;5008635;28;20117;-64
2023/01/04 03:17:27;;;;;;;1.85;1.40;;;;;;;;;;4991308;28;20045;-63
2023/01/04 03:19:55;;;;;;;3.05;1.80;;;;;;;;;;5019974;28;20037;-63
2023/01/04 03:36:33;;;;;;;2.88;1.77;;;;;;;;;;5007752;28;19917;-63
2023/01/04 03:50:37;;;;;;;4.15;2.05;;;;;;;;;;5011896;28;20403;-64
2023/01/04 03:53:04;;;;;;;3.20;1.92;;;;;;;;;;5002340;28;20116;-63
2023/01/04 03:55:30;;;;;;;3.80;2.17;;;;;;;;;;5010944;28;20433;-63
2023/01/04 03:57:57;;;;;;;4.70;2.22;;;;;;;;;;5012643;28;20096;-63
2023/01/04 04:00:23;;;;;;;3.17;2.38;;;;;;;;;;5002521;28;20120;-63
2023/01/04 04:02:49;;;;;;;4.50;2.25;;;;;;;;;;5008394;28;20499;-63
2023/01/04 04:08:29;;;;;;;4.85;2.10;;;;;;;;;;5005336;28;20042;-63
2023/01/04 04:13:44;;;;;;;2.72;2.00;;;;;;;;;;5011429;28;20057;-64
2023/01/04 04:16:10;;;;;;;3.13;1.95;;;;;;;;;;4994132;28;20454;-63
2023/01/04 04:18:36;;;;;;;2.45;1.60;;;;;;;;;;4999168;28;20125;-63
2023/01/04 04:21:02;;;;;;;3.20;2.05;;;;;;;;;;5013965;28;20034;-63
2023/01/04 04:23:28;;;;;;;2.55;1.70;;;;;;;;;;5011407;28;20054;-64
2023/01/04 04:25:54;;;;;;;3.38;2.00;;;;;;;;;;5017720;28;20120;-63
2023/01/04 04:28:20;;;;;;;3.63;2.28;;;;;;;;;;5011364;28;20045;-63
2023/01/04 04:30:49;;;;;;;2.33;1.88;;;;;;;;;;5000093;28;20088;-63
2023/01/04 04:33:15;;;;;;;2.38;1.60;;;;;;;;;;4996114;28;20049;-63
2023/01/04 04:35:41;;;;;;;2.35;1.92;;;;;;;;;;5010828;28;20037;-63
2023/01/04 04:38:07;;;;;;;2.00;1.80;;;;;;;;;;4996738;28;20045;-63
2023/01/04 04:43:17;;;;;;;2.63;1.83;;;;;;;;;;5011265;28;20092;-63
2023/01/04 04:45:43;;;;;;;5.25;1.70;;;;;;;;;;5018748;28;20041;-63
2023/01/04 04:48:09;;;;;;;2.50;1.40;;;;;;;;;;5018796;28;20092;-63
2023/01/04 04:50:35;;;;;;;2.00;1.80;;;;;;;;;;4996837;28;20049;-63
2023/01/04 04:53:01;;;;;;;2.78;1.85;;;;;;;;;;5009531;28;20061;-62
2023/01/04 04:55:27;;;;;;;3.35;1.83;;;;;;;;;;5017761;28;20096;-64
2023/01/04 04:57:53;;;;;;;2.35;2.10;;;;;;;;;;5028877;28;20041;-63
2023/01/04 05:00:19;;;;;;;2.50;1.75;;;;;;;;;;5019557;28;20483;-64
2023/01/04 05:02:45;;;;;;;2.88;2.10;;;;;;;;;;5008069;28;20038;-64
2023/01/04 05:05:11;;;;;;;3.72;2.00;;;;;;;;;;5008678;28;20096;-62
2023/01/04 05:07:37;;;;;;;2.95;1.75;;;;;;;;;;4997001;28;20380;-62
2023/01/04 05:10:03;;;;;;;2.97;2.20;;;;;;;;;;5000641;28;20045;-62
2023/01/04 05:15:14;;;;;;;3.42;2.60;;;;;;;;;;5015301;28;20521;-62
2023/01/04 05:17:40;;;;;;;3.20;2.90;;;;;;;;;;5011420;28;20049;-62
2023/01/04 05:20:06;;;;;;;3.30;2.65;;;;;;;;;;5012182;28;20042;-62
2023/01/04 05:22:32;;;;;;;4.22;2.53;;;;;;;;;;5007360;28;20496;-62
2023/01/04 05:24:58;;;;;;;3.80;2.47;;;;;;;;;;5011302;28;20041;-62
2023/01/04 05:27:24;;;;;;;2.97;2.30;;;;;;;;;;5019537;28;20143;-62
2023/01/04 05:32:35;;;;;;;4.38;3.10;;;;;;;;;;5015228;28;20108;-62
2023/01/04 05:35:01;;;;;;;4.18;3.33;;;;;;;;;;5011548;28;20084;-62
2023/01/04 05:37:27;;;;;;;4.15;3.13;;;;;;;;;;5012026;28;20092;-62
2023/01/04 05:39:53;;;;;;;4.95;3.65;;;;;;;;;;5012640;28;20080;-62
2023/01/04 05:42:25;;;;;;;5.40;3.83;;;;;;;;;;5013312;28;20038;-62
2023/01/04 05:44:51;;;;;;;6.22;4.20;;;;;;;;;;5015675;28;20064;-62
2023/01/04 05:47:17;;;;;;;5.85;3.90;;;;;;;;;;5018468;28;20084;-62
2023/01/04 05:49:44;;;;;;;5.70;4.20;;;;;;;;;;5010758;28;20061;-63
2023/01/04 05:52:11;;;;;;;5.43;3.67;;;;;;;;;;4997232;28;20084;-63
2023/01/04 05:54:37;;;;;;;5.35;3.70;;;;;;;;;;5023018;28;20518;-62
2023/01/04 05:57:03;;;;;;;5.03;4.50;;;;;;;;;;5034907;28;20045;-62
2023/01/04 05:59:28;;;;;;;6.88;4.40;;;;;;;;;;5009444;28;20042;-62
2023/01/04 06:01:54;;;;;;;6.32;4.60;;;;;;;;;;5014859;28;20407;-62
2023/01/04 06:04:20;;;;;;;5.38;3.70;;;;;;;;;;5018562;28;20089;-62
2023/01/04 06:06:46;;;;;;;6.80;4.78;;;;;;;;;;5008939;28;20397;-62
2023/01/04 06:09:12;;;;;;;6.07;4.47;;;;;;;;;;5010832;28;20483;-63
2023/01/04 06:11:38;;;;;;;6.90;4.38;;;;;;;;;;5011078;28;20062;-63
2023/01/04 06:14:05;;;;;;;8.25;4.43;;;;;;;;;;5013636;28;20042;-63
2023/01/04 06:16:31;;;;;;;6.80;4.70;;;;;;;;;;5022474;28;20041;-63
2023/01/04 06:18:57;;;;;;;7.47;3.55;;;;;;;;;;5016105;28;20042;-63
2023/01/04 06:21:26;;;;;;;7.00;4.75;;;;;;;;;;5012689;28;20065;-63
2023/01/04 06:23:52;;;;;;;8.13;4.22;;;;;;;;;;5013927;28;20057;-64
2023/01/04 06:26:18;;;;;;;6.03;4.20;;;;;;;;;;5020895;28;20077;-64
2023/01/04 06:28:44;;;;;;;7.30;3.78;;;;;;;;;;5012671;28;20037;-64
2023/01/04 06:31:11;;;;;;;6.63;4.03;;;;;;;;;;5010132;28;20030;-63
2023/01/04 06:33:37;;;;;;;6.35;4.05;;;;;;;;;;5004080;28;20410;-64
2023/01/04 06:36:04;;;;;;;4.05;3.25;;;;;;;;;;5021293;28;20168;-63
2023/01/04 06:38:30;;;;;;;5.25;3.90;;;;;;;;;;5013443;28;20041;-63
2023/01/04 06:40:56;;;;;;;4.57;3.55;;;;;;;;;;5011625;28;20034;-63
2023/01/04 06:43:22;;;;;;;5.05;3.13;;;;;;;;;;5013865;28;20173;-63
2023/01/04 06:45:48;;;;;;;5.80;3.40;;;;;;;;;;5007123;28;20041;-63
2023/01/04 06:48:14;;;;;;;5.55;3.20;;;;;;;;;;5012521;28;20065;-63
2023/01/04 06:50:40;;;;;;;5.55;3.17;;;;;;;;;;5008860;28;20088;-63
2023/01/04 06:53:06;;;;;;;4.35;2.65;;;;;;;;;;5012802;28;20407;-63
2023/01/04 06:55:32;;;;;;;4.18;2.50;;;;;;;;;;5013826;28;20133;-63
2023/01/04 06:57:58;;;;;;;3.10;2.40;;;;;;;;;;5007581;28;20034;-64
2023/01/04 07:00:25;;;;;;;4.50;2.45;;;;;;;;;;5009845;28;20038;-64
2023/01/04 07:02:51;;;;;;;3.42;2.70;;;;;;;;;;5004605;28;20069;-63
2023/01/04 07:05:17;;;;;;;1.67;1.58;;;;;;;;;;5012113;28;20034;-63
2023/01/04 07:07:43;;;;;;;3.20;2.60;;;;;;;;;;5011471;28;20046;-63
2023/01/04 07:10:09;;;;;;;3.20;2.30;;;;;;;;;;5007158;28;20041;-63
2023/01/04 07:12:35;;;;;;;3.17;2.17;;;;;;;;;;5006938;28;20042;-63
2023/01/04 07:15:01;;;;;;;3.90;2.50;;;;;;;;;;5007754;28;20224;-63
2023/01/04 07:17:27;;;;;;;4.00;2.65;;;;;;;;;;5012737;28;20040;-62
2023/01/04 07:19:53;;;;;;;3.65;2.63;;;;;;;;;;5010205;28;20459;-62
2023/01/04 07:22:19;;;;;;;3.42;1.85;;;;;;;;;;5011630;28;20099;-62
2023/01/04 07:24:45;;;;;;;4.70;2.53;;;;;;;;;;5010210;28;20037;-62
2023/01/04 07:27:11;;;;;;;3.33;2.70;;;;;;;;;;4996773;28;20072;-61
2023/01/04 07:29:38;;;;;;;4.50;2.58;;;;;;;;;;4991061;28;20037;-63
2023/01/04 07:32:04;;;;;;;3.10;2.40;;;;;;;;;;5024692;28;20137;-62
2023/01/04 07:34:30;;;;;;;3.20;2.03;;;;;;;;;;5009310;28;20049;-62
2023/01/04 07:36:56;;;;;;;3.63;2.38;;;;;;;;;;5011512;28;20044;-62
2023/01/04 07:39:22;;;;;;;2.75;2.30;;;;;;;;;;5009309;28;20412;-62
2023/01/04 07:41:49;;;;;;;3.00;2.30;;;;;;;;;;4987293;28;20049;-63
2023/01/04 07:44:16;;;;;;;3.67;2.10;;;;;;;;;;5008677;28;20038;-63
2023/01/04 07:46:43;;;;;;;3.53;1.70;;;;;;;;;;4996779;28;20049;-63
2023/01/04 07:49:12;;;;;;;3.00;2.00;;;;;;;;;;4976645;28;20092;-63
2023/01/04 07:51:38;;;;;;;5.00;2.53;;;;;;;;;;5011637;28;20059;-63
2023/01/04 07:54:03;;;;;;;2.70;2.20;;;;;;;;;;5010860;28;20038;-63
2023/01/04 07:56:30;;;;;;;5.03;2.45;;;;;;;;;;5028187;28;20080;-63
2023/01/04 07:58:58;;;;;;;3.85;2.70;;;;;;;;;;5015064;28;20484;-63
2023/01/04 08:01:24;;;;;;;4.55;2.50;;;;;;;;;;5028855;22;20104;-70
2023/01/04 08:03:50;;;;;;;4.07;2.67;;;;;;;;;;5047576;28;20064;-70
2023/01/04 08:06:17;;;;;;;5.30;2.95;;;;;;;;;;5046253;28;20037;-71
2023/01/04 08:08:43;;;;;;;6.15;2.95;;;;;;;;;;5041423;28;20033;-70
2023/01/04 08:11:13;;;;;;;3.85;2.88;;;;;;;;;;5050908;28;20458;-71
2023/01/04 08:13:39;;;;;;;3.88;3.15;;;;;;;;;;5042729;28;20045;-70
2023/01/04 08:16:05;;;;;;;4.20;2.70;;;;;;;;;;5050927;28;20032;-70
2023/01/04 08:18:31;;;;;;;4.15;2.65;;;;;;;;;;5055497;28;20379;-70
2023/01/04 08:21:02;;;;;;;4.63;3.42;;;;;;;;;;5050851;28;20128;-70
2023/01/04 08:23:28;;;;;;;4.97;2.78;;;;;;;;;;5050904;28;20048;-70
2023/01/04 08:25:54;;;;;;;4.47;3.45;;;;;;;;;;5053154;28;20121;-70
2023/01/04 08:28:20;;;;;;;4.57;2.92;;;;;;;;;;5052462;28;20049;-70
2023/01/04 08:30:46;;;;;;;5.72;3.03;;;;;;;;;;5042681;28;20074;-70
2023/01/04 08:33:13;;;;;;;5.53;3.35;;;;;;;;;;5052892;28;20044;-70
2023/01/04 08:35:39;;;;;;;4.43;3.08;;;;;;;;;;5048288;28;20037;-69
2023/01/04 08:38:04;;;;;;;4.38;3.40;;;;;;;;;;5050211;28;20040;-70
2023/01/04 08:40:30;;;;;;;5.30;3.05;;;;;;;;;;5054804;28;20490;-70
2023/01/04 08:42:56;;;;;;;4.50;3.38;;;;;;;;;;5047253;28;20111;-70
2023/01/04 08:45:22;;;;;;;5.35;3.90;;;;;;;;;;5055419;28;20417;-70
2023/01/04 08:47:48;;;;;;;6.55;3.70;;;;;;;;;;5055203;28;20047;-70
2023/01/04 08:50:15;;;;;;;4.63;3.63;;;;;;;;;;5051090;28;20037;-71
2023/01/04 08:52:42;;;;;;;5.75;4.00;;;;;;;;;;5051995;28;20040;-69
2023/01/04 08:55:08;;;;;;;5.43;3.63;;;;;;;;;;5055759;28;20048;-69
2023/01/04 08:57:34;;;;;;;6.50;4.22;;;;;;;;;;5052145;28;20139;-70
2023/01/04 09:00:00;;;;;;;5.68;3.75;;;;;;;;;;5050768;28;20486;-71
2023/01/04 09:02:27;;;;;;;3.42;2.88;;;;;;;;;;5049286;28;20460;-70
2023/01/04 09:05:02;;;;;;;6.30;3.40;;;;;;;;;;5056152;28;20044;-70
2023/01/04 09:07:29;;;;;;;7.20;3.72;;;;;;;;;;5053032;28;20048;-71
2023/01/04 09:09:56;;;;;;;4.43;3.83;;;;;;;;;;5055534;28;20036;-70
2023/01/04 09:12:22;;;;;;;5.70;3.90;;;;;;;;;;5045171;28;20041;-69
2023/01/04 09:14:48;;;;;;;5.13;3.50;;;;;;;;;;5054206;28;20036;-70
2023/01/04 09:17:14;;;;;;;5.05;3.45;;;;;;;;;;5049275;28;20044;-70
2023/01/04 09:19:40;;;;;;;5.68;3.50;;;;;;;;;;5046097;28;20041;-71
2023/01/04 09:22:06;;;;;;;5.05;3.05;;;;;;;;;;5034790;28;20041;-71
2023/01/04 09:24:33;;;;;;;5.95;3.22;;;;;;;;;;5051294;28;20033;-70
2023/01/04 09:26:59;;;;;;;6.78;3.60;;;;;;;;;;5031385;28;20143;-71
2023/01/04 09:29:26;;;;;;;5.78;2.72;;;;;;;;;;5052326;28;20601;-71
2023/01/04 09:31:53;;;;;;;6.50;3.45;;;;;;;;;;5052405;28;20041;-71
2023/01/04 09:34:19;;;;;;;6.30;2.97;;;;;;;;;;5051101;28;20056;-71
2023/01/04 09:36:45;;;;;;;5.25;3.17;;;;;;;;;;5053670;28;20071;-70
2023/01/04 09:39:11;;;;;;;4.72;2.78;;;;;;;;;;5061026;28;20047;-70
2023/01/04 09:41:39;;;;;;;2.58;1.83;;;;;;;;;;5056543;28;20037;-70
2023/01/04 09:44:08;;;;;;;5.20;3.05;;;;;;;;;;5053206;28;20037;-70
2023/01/04 09:46:41;;;;;;;3.22;2.30;;;;;;;;;;5053970;28;20033;-70
2023/01/04 09:49:20;;;;;;;3.28;2.22;;;;;;;;;;5046354;28;20068;-70
2023/01/04 09:51:57;;;;;;;4.10;2.10;;;;;;;;;;5051274;28;20048;-70
2023/01/04 09:54:26;;;;;;;4.57;1.65;;;;;;;;;;5041721;28;20048;-70
2023/01/04 09:56:55;;;;;;;3.10;2.00;;;;;;;;;;5050867;28;20045;-69
2023/01/04 09:59:26;;;;;;;1.40;1.20;;;;;;;;;;5049510;28;20490;-69
2023/01/04 10:01:58;;;;;;;2.97;1.10;;;;;;;;;;5054376;28;20051;-70
2023/01/04 10:04:33;;;;;;;1.40;1.10;;;;;;;;;;5059164;28;20128;-70
2023/01/04 10:06:59;;;;;;;2.67;1.50;;;;;;;;;;5052057;28;20040;-70
2023/01/04 10:09:25;;;;;;;3.92;1.42;;;;;;;;;;5052456;28;20055;-70
2023/01/04 10:12:09;;;;;;;1.40;1.25;;;;;;;;;;5054578;28;20561;-71
2023/01/04 10:14:35;;;;;;;0.90;0.90;;;;;;;;;;5038776;28;20045;-71
2023/01/04 10:17:17;;;;;;;1.85;1.30;;;;;;;;;;5053766;28;20059;-71
2023/01/04 10:19:42;;;;;;;;;;;;;;;;;;5053809;28;20044;-70
2023/01/04 10:22:17;;;;;;;1.10;0.77;;;;;;;;;;5048804;28;19917;-69
2023/01/04 10:25:02;;;;;;;1.00;0.90;;;;;;;;;;5050509;28;20045;-69
2023/01/04 10:27:48;;;;;;;1.67;0.80;;;;;;;;;;5053040;28;20033;-69
2023/01/04 10:30:22;;;;;;;1.48;0.88;;;;;;;;;;5047180;28;20047;-69
2023/01/04 10:32:52;;;;;;;1.20;0.70;;;;;;;;;;5052734;28;20045;-69
2023/01/04 10:35:20;;;;;;;1.73;0.75;;;;;;;;;;5052793;28;20120;-69
2023/01/04 10:37:49;;;;;;;1.23;0.85;;;;;;;;;;5052952;28;20044;-69
2023/01/04 10:40:16;;;;;;;1.00;0.70;;;;;;;;;;5053219;28;20041;-69
2023/01/04 10:42:53;;;;;;;1.05;0.88;;;;;;;;;;5039926;28;20418;-69
2023/01/04 10:45:43;;;;;;;0.80;0.70;;;;;;;;;;5051149;28;20033;-69
2023/01/04 10:48:18;;;;;;;1.73;1.05;;;;;;;;;;5043708;28;20049;-69
2023/01/04 10:50:51;;;;;;;0.93;0.80;;;;;;;;;;5052424;28;20037;-69
2023/01/04 10:53:20;;;;;;;3.85;1.40;;;;;;;;;;5053044;28;20445;-69
2023/01/04 10:55:52;;;;;;;1.42;1.30;;;;;;;;;;5051189;28;20449;-69
2023/01/04 10:58:37;;;;;;;5.70;1.80;;;;;;;;;;5047754;28;20049;-69
2023/01/04 11:01:15;;;;;;;4.05;2.05;;;;;;;;;;5053170;28;20447;-69
2023/01/04 11:03:46;;;;;;;3.85;1.98;;;;;;;;;;5052398;28;20036;-69
2023/01/04 11:06:16;;;;;;;4.50;1.80;;;;;;;;;;5050674;28;20043;-68
2023/01/04 11:08:47;;;;;;;3.20;1.97;;;;;;;;;;5051504;28;20041;-69
2023/01/04 11:11:17;;;;;;;7.90;2.30;;;;;;;;;;5048964;28;20041;-69
2023/01/04 11:13:43;;;;;;;3.95;1.70;;;;;;;;;;5052271;28;20041;-68
2023/01/04 11:16:10;;;;;;;4.45;1.80;;;;;;;;;;5025356;28;20437;-69
2023/01/04 11:18:37;;;;;;;5.15;1.40;;;;;;;;;;5053029;28;20104;-70
2023/01/04 11:21:08;;;;;;;5.30;1.83;;;;;;;;;;5047134;28;20051;-69
2023/01/04 11:23:34;;;;;;;4.80;2.00;;;;;;;;;;5043227;28;20509;-69
2023/01/04 11:26:05;;;;;;;4.60;1.65;;;;;;;;;;5053201;28;20059;-70
2023/01/04 11:28:50;;;;;;;5.82;2.60;;;;;;;;;;5045728;28;20033;-70
2023/01/04 11:31:22;;;;;;;4.28;1.90;;;;;;;;;;5049174;28;20036;-69
2023/01/04 11:33:51;;;;;;;7.97;2.75;;;;;;;;;;5044300;28;20041;-69
2023/01/04 11:36:32;;;;;;;7.60;3.05;;;;;;;;;;5054340;28;20041;-69
2023/01/04 11:38:58;;;;;;;6.35;2.65;;;;;;;;;;5051034;28;20116;-69
2023/01/04 11:41:25;;;;;;;8.25;2.95;;;;;;;;;;5065828;28;20076;-70
2023/01/04 11:44:02;;;;;;;6.75;2.88;;;;;;;;;;5051982;28;20094;-70
2023/01/04 11:46:29;;;;;;;8.98;2.85;;;;;;;;;;5044624;28;20666;-70
2023/01/04 11:48:56;;;;;;;7.70;3.00;;;;;;;;;;5051704;28;20040;-69
2023/01/04 11:51:22;;;;;;;10.00;2.95;;;;;;;;;;5050334;28;20064;-69
2023/01/04 11:54:00;;;;;;;9.90;2.70;;;;;;;;;;5042385;28;20067;-70
2023/01/04 11:56:28;;;;;;;6.93;2.42;;;;;;;;;;5040460;28;20104;-69
2023/01/04 11:59:12;;;;;;;10.60;2.65;;;;;;;;;;5042090;28;20120;-69
2023/01/04 12:01:45;;;;;;;8.77;2.67;;;;;;;;;;5049949;28;20079;-68
2023/01/04 12:04:22;;;;;;;8.02;2.97;;;;;;;;;;5045647;28;20041;-69
2023/01/04 12:06:51;;;;;;;12.98;2.53;;;;;;;;;;5049025;28;20084;-70
2023/01/04 12:09:18;;;;;;;9.07;3.10;;;;;;;;;;5048213;28;20068;-70
2023/01/04 12:11:49;;;;;;;9.10;2.97;;;;;;;;;;5049932;28;20045;-70
2023/01/04 12:14:15;;;;;;;;;;;;;;;;;;5051223;28;20127;-70
2023/01/04 12:16:45;;;;;;;7.43;2.95;;;;;;;;;;5051572;28;19974;-70
2023/01/04 12:19:15;;;;;;;6.70;2.53;;;;;;;;;;5046090;28;20045;-69
2023/01/04 12:21:43;;;;;;;8.85;3.13;;;;;;;;;;5053767;28;20048;-69
2023/01/04 12:24:09;;;;;;;6.50;1.90;;;;;;;;;;5050742;28;20037;-69
2023/01/04 12:26:40;;;;;;;7.72;1.70;;;;;;;;;;5045875;28;20040;-69
2023/01/04 12:29:21;;;;;;;5.82;1.80;;;;;;;;;;5044121;28;20040;-70
2023/01/04 12:31:48;;;;;;;3.85;1.40;;;;;;;;;;5048638;28;20407;-70
2023/01/04 12:34:24;;;;;;;4.68;1.45;;;;;;;;;;5049462;28;20143;-69
2023/01/04 12:37:18;;;;;;;4.57;1.27;;;;;;;;;;5051204;28;20047;-71
2023/01/04 12:39:46;;;;;;;1.65;1.00;;;;;;;;;;5051289;28;20048;-70
2023/01/04 12:42:18;;;;;;;2.72;1.08;;;;;;;;;;5049061;28;20044;-70
2023/01/04 12:44:50;;;;;;;2.95;1.08;;;;;;;;;;5049894;28;20053;-70
2023/01/04 12:50:12;;;;;;;4.32;1.10;;;;;;;;;;5049261;28;20048;-69
2023/01/04 12:53:05;;;;;;;2.65;1.30;;;;;;;;;;5055309;28;20040;-69
2023/01/04 12:55:31;;;;;;;3.53;0.77;;;;;;;;;;5048896;28;20159;-69
2023/01/04 12:57:57;;;;;;;1.95;1.00;;;;;;;;;;5048682;28;20508;-69
2023/01/04 13:00:36;;;;;;;2.67;1.00;;;;;;;;;;5046119;28;20084;-70
2023/01/04 13:03:14;;;;;;;3.22;1.00;;;;;;;;;;5051149;28;20044;-70
2023/01/04 13:05:41;;;;;;;2.20;1.05;;;;;;;;;;5051064;28;20071;-70
2023/01/04 13:08:12;;;;;;;3.30;1.15;;;;;;;;;;5056987;28;20032;-70
2023/01/04 13:10:43;;;;;;;7.10;1.80;;;;;;;;;;5050121;28;20118;-69
2023/01/04 13:13:28;;;;;;;7.50;1.42;;;;;;;;;;5046905;28;20045;-69
2023/01/04 13:16:03;;;;;;;5.57;1.70;;;;;;;;;;5050174;28;20562;-69
2023/01/04 13:18:34;;;;;;;6.70;1.45;;;;;;;;;;5051565;28;20041;-69
2023/01/04 13:21:01;;;;;;;8.23;1.80;;;;;;;;;;5044102;28;20040;-70
2023/01/04 13:23:27;;;;;;;8.80;1.80;;;;;;;;;;5045242;28;20037;-69
2023/01/04 13:26:16;;;;;;;8.77;1.90;;;;;;;;;;5050421;28;20065;-69
2023/01/04 13:28:42;;;;;;;8.20;1.95;;;;;;;;;;5047926;28;20045;-69
2023/01/04 13:31:08;;;;;;;7.38;2.00;;;;;;;;;;5050841;28;20043;-68
2023/01/04 13:33:34;;;;;;;9.55;1.95;;;;;;;;;;5042343;28;20037;-69
2023/01/04 13:36:09;;;;;;;7.97;1.65;;;;;;;;;;5051124;28;20406;-69
2023/01/04 13:38:36;;;;;;;10.55;1.75;;;;;;;;;;5051321;28;20044;-69
2023/01/04 13:41:03;;;;;;;13.15;3.17;;;;;;;;;;5046265;28;20440;-69
2023/01/04 13:43:43;;;;;;;7.68;1.83;;;;;;;;;;5048044;28;20037;-68
2023/01/04 13:46:20;;;;;;;10.97;2.27;;;;;;;;;;5031268;28;20050;-69
2023/01/04 13:48:47;;;;;;;11.20;2.05;;;;;;;;;;5030920;28;20041;-69
2023/01/04 13:51:15;;;;;;;13.05;2.47;;;;;;;;;;5036145;28;20041;-69
2023/01/04 13:53:41;;;;;;;17.23;2.50;;;;;;;;;;5053431;28;20445;-69
2023/01/04 13:56:18;;;;;;;12.73;2.50;;;;;;;;;;5049539;28;20059;-69
2023/01/04 13:58:44;;;;;;;12.18;2.50;;;;;;;;;;5052187;28;20461;-69
2023/01/04 14:03:57;;;;;;;12.63;2.50;;;;;;;;;;5064725;28;20437;-66
2023/01/04 14:06:33;;;;;;;13.00;2.40;;;;;;;;;;5073778;28;20094;-66
2023/01/04 14:09:02;;;;;;;13.73;3.03;;;;;;;;;;5073372;28;20040;-66
2023/01/04 14:11:57;;;;;;;8.05;1.65;;;;;;;;;;5065077;28;20043;-66
2023/01/04 14:14:32;;;;;;;13.38;2.45;;;;;;;;;;5053277;28;20482;-66
2023/01/04 14:17:17;;;;;;;12.30;2.65;;;;;;;;;;5062933;28;20040;-66
2023/01/04 14:19:43;;;;;;;14.77;2.72;;;;;;;;;;5068038;28;20032;-67
2023/01/04 14:22:23;;;;;;;8.45;1.98;;;;;;;;;;5072562;28;20048;-67
2023/01/04 14:24:54;;;;;;;19.33;3.40;;;;;;;;;;5074288;28;20478;-66
2023/01/04 14:27:33;;;;;;;14.60;2.23;;;;;;;;;;5072424;28;20044;-66
2023/01/04 14:29:59;;;;;;;12.90;2.40;;;;;;;;;;5056195;28;20282;-64
2023/01/04 14:32:26;;;;;;;17.38;2.63;;;;;;;;;;5065514;28;20098;-64
2023/01/04 14:34:53;;;;;;;15.25;2.83;;;;;;;;;;5071608;28;20039;-63
2023/01/04 14:37:19;;;;;;;14.50;2.33;;;;;;;;;;5073911;28;20036;-63
2023/01/04 14:39:45;;;;;;;16.52;2.70;;;;;;;;;;5074125;28;20041;-63
2023/01/04 14:42:27;;;;;;;14.20;2.45;;;;;;;;;;5072624;28;20040;-63
2023/01/04 14:44:54;;;;;;;11.43;2.58;;;;;;;;;;5073562;28;20036;-64
2023/01/04 14:47:20;;;;;;;14.82;2.63;;;;;;;;;;5066400;28;20538;-64
2023/01/04 14:49:46;;;;;;;14.35;2.47;;;;;;;;;;5061086;28;20049;-64
2023/01/04 14:52:19;;;;;;;17.27;3.00;;;;;;;;;;5073238;28;20041;-64
2023/01/04 14:54:45;;;;;;;12.05;2.63;;;;;;;;;;5069185;28;20041;-64
2023/01/04 14:57:13;;;;;;;15.30;2.78;;;;;;;;;;5053723;28;20518;-64
2023/01/04 14:59:39;;;;;;;14.25;2.20;;;;;;;;;;5053160;28;20076;-64
2023/01/04 15:02:05;;;;;;;14.13;3.03;;;;;;;;;;5071776;28;20079;-64
2023/01/04 15:04:31;;;;;;;13.25;2.30;;;;;;;;;;5064316;28;20508;-66
2023/01/04 15:06:58;;;;;;;15.10;2.30;;;;;;;;;;5071704;28;20037;-65
2023/01/04 15:09:24;;;;;;;14.23;2.63;;;;;;;;;;5070917;28;20036;-66
2023/01/04 15:11:51;;;;;;;14.65;2.38;;;;;;;;;;5071209;28;20044;-66
2023/01/04 15:14:17;;;;;;;18.92;2.72;;;;;;;;;;5071299;28;20044;-66
2023/01/04 15:16:43;;;;;;;8.25;2.28;;;;;;;;;;5073076;28;20047;-66
2023/01/04 15:19:09;;;;;;;6.50;2.00;;;;;;;;;;5068404;28;20461;-66
2023/01/04 15:21:35;;;;;;;16.25;2.97;;;;;;;;;;5073034;28;20036;-66
2023/01/04 15:24:01;;;;;;;13.70;3.00;;;;;;;;;;5071641;28;20247;-66
2023/01/04 15:26:27;;;;;;;13.93;2.72;;;;;;;;;;5062551;28;20029;-65
2023/01/04 15:28:53;;;;;;;10.15;2.13;;;;;;;;;;5066307;28;20033;-65
2023/01/04 15:31:19;;;;;;;16.88;3.38;;;;;;;;;;5071895;28;20505;-65
2023/01/04 15:33:45;;;;;;;10.50;2.38;;;;;;;;;;5070489;28;20037;-65
2023/01/04 15:36:13;;;;;;;20.65;3.35;;;;;;;;;;5071104;28;20067;-65
2023/01/04 15:38:39;;;;;;;13.00;2.58;;;;;;;;;;5065359;28;20066;-64
2023/01/04 15:41:06;;;;;;;13.13;2.63;;;;;;;;;;5066286;28;20048;-66
2023/01/04 15:43:36;;;;;;;14.48;2.90;;;;;;;;;;5056080;28;20391;-64
2023/01/04 15:46:02;;;;;;;19.02;3.08;;;;;;;;;;5055706;28;20674;-65
2023/01/04 15:48:28;;;;;;;15.45;2.83;;;;;;;;;;5067437;28;20039;-65
2023/01/04 15:50:54;;;;;;;12.18;2.70;;;;;;;;;;5063995;28;20033;-64